Time;durP1;ratioP1;P1;durP2;ratioP2;P2;SDS_P1;SDS_P2;PMS_P1;PMS_P2;Temp;Humidity;BMP_temperature;BMP_pressure;BME280_temperature;BME280_humidity;BME280_pressure;Samples;Min_cycle;Max_cycle;Signal;HPM_P1;HPM_P2
2024/01/13 00:00:13;;;;;;;3.50;1.95;;;;;;;18.27;44.99;102933.63;5048480;28;20031;-40
2024/01/13 00:02:39;;;;;;;2.85;1.95;;;;;;;18.25;44.86;102938.53;5043533;28;20424;-40
2024/01/13 00:05:05;;;;;;;4.97;1.95;;;;;;;18.23;45.20;102929.66;5044192;28;20528;-40
2024/01/13 00:07:30;;;;;;;6.18;1.92;;;;;;;18.20;45.40;102930.13;5041868;28;20477;-39
2024/01/13 00:09:56;;;;;;;4.30;1.90;;;;;;;18.17;45.32;102917.69;5042188;28;20032;-38
2024/01/13 00:12:21;;;;;;;5.30;1.90;;;;;;;18.16;45.43;102917.91;5043429;28;20064;-39
2024/01/13 00:14:46;;;;;;;2.53;1.77;;;;;;;18.12;45.51;102912.91;5040573;28;20052;-37
2024/01/13 00:17:12;;;;;;;3.17;1.77;;;;;;;18.10;45.63;102915.03;5043162;28;20033;-39
2024/01/13 00:19:37;;;;;;;3.55;1.77;;;;;;;18.08;45.75;102911.66;5039303;28;20021;-39
2024/01/13 00:22:03;;;;;;;2.88;1.80;;;;;;;18.07;45.71;102912.72;5042863;28;20322;-36
2024/01/13 00:24:28;;;;;;;4.32;1.70;;;;;;;18.05;45.70;102909.38;5045069;28;20245;-38
2024/01/13 00:26:54;;;;;;;2.35;1.80;;;;;;;18.04;45.88;102899.47;5045315;28;20415;-36
2024/01/13 00:29:19;;;;;;;4.15;1.70;;;;;;;18.01;46.02;102905.41;5043905;28;20112;-37
2024/01/13 00:31:44;;;;;;;3.70;1.90;;;;;;;18.00;45.87;102897.41;5040282;28;20056;-40
2024/01/13 00:34:10;;;;;;;6.22;1.75;;;;;;;17.99;45.97;102891.09;5042640;28;20032;-36
2024/01/13 00:36:35;;;;;;;2.60;1.70;;;;;;;17.97;45.96;102884.97;5040144;28;20106;-38
2024/01/13 00:39:00;;;;;;;3.53;1.60;;;;;;;17.95;46.07;102882.47;5043236;28;20036;-37
2024/01/13 00:41:26;;;;;;;3.83;1.70;;;;;;;17.94;46.09;102874.44;5042382;28;20107;-39
2024/01/13 00:43:52;;;;;;;3.25;1.73;;;;;;;17.93;46.18;102870.00;5042549;28;20047;-39
2024/01/13 00:46:17;;;;;;;2.47;1.70;;;;;;;17.90;46.18;102865.81;5041447;28;20323;-43
2024/01/13 00:48:43;;;;;;;3.53;1.95;;;;;;;17.89;46.33;102860.53;5041004;28;20097;-40
2024/01/13 00:51:09;;;;;;;1.75;1.42;;;;;;;17.87;46.33;102865.44;5040131;28;20053;-39
2024/01/13 00:53:35;;;;;;;13.13;2.13;;;;;;;17.84;46.41;102860.38;5042285;28;20033;-38
2024/01/13 00:56:01;;;;;;;1.60;1.50;;;;;;;17.84;46.36;102860.38;5043628;28;20063;-39
2024/01/13 00:58:26;;;;;;;2.58;1.80;;;;;;;17.83;46.42;102858.72;5042932;28;20040;-38
2024/01/13 01:00:51;;;;;;;3.45;1.80;;;;;;;17.81;46.33;102862.50;5041887;28;20037;-39
2024/01/13 01:03:17;;;;;;;3.05;1.77;;;;;;;17.79;46.53;102863.81;5042433;28;20047;-39
2024/01/13 01:05:42;;;;;;;3.90;1.65;;;;;;;17.78;46.68;102864.88;5042705;28;20048;-39
2024/01/13 01:08:08;;;;;;;2.58;1.77;;;;;;;17.75;46.64;102852.44;5040194;28;20029;-37
2024/01/13 01:10:33;;;;;;;2.25;1.45;;;;;;;17.74;46.75;102848.06;5042452;28;20044;-36
2024/01/13 01:12:58;;;;;;;2.90;1.67;;;;;;;17.73;46.68;102846.38;5044105;28;20107;-38
2024/01/13 01:15:24;;;;;;;2.28;1.52;;;;;;;17.71;46.78;102833.97;5045019;28;20033;-39
2024/01/13 01:17:49;;;;;;;2.78;1.50;;;;;;;17.69;46.82;102839.66;5041456;28;20115;-39
2024/01/13 01:20:14;;;;;;;2.10;1.73;;;;;;;17.69;46.78;102839.66;5042345;28;20017;-39
2024/01/13 01:22:40;;;;;;;1.35;1.25;;;;;;;17.67;46.91;102839.06;5040919;28;20032;-39
2024/01/13 01:25:05;;;;;;;2.28;1.50;;;;;;;17.66;47.02;102834.63;5041348;28;20478;-39
2024/01/13 01:27:31;;;;;;;1.63;1.52;;;;;;;17.65;46.94;102839.25;5046431;28;20107;-39
2024/01/13 01:29:56;;;;;;;1.60;1.50;;;;;;;17.65;46.94;102846.66;5042881;28;20024;-40
2024/01/13 01:32:22;;;;;;;3.47;1.40;;;;;;;17.62;47.03;102842.47;5042954;28;20320;-40
2024/01/13 01:34:47;;;;;;;2.25;1.50;;;;;;;17.63;47.20;102843.28;5042452;28;20035;-39
2024/01/13 01:37:12;;;;;;;1.33;1.20;;;;;;;17.60;47.03;102833.63;5039256;28;20067;-39
2024/01/13 01:39:38;;;;;;;3.28;1.58;;;;;;;17.59;47.06;102828.38;5041151;28;20051;-39
2024/01/13 01:42:03;;;;;;;1.95;1.67;;;;;;;17.59;47.09;102828.38;5041802;28;20060;-39
2024/01/13 01:44:28;;;;;;;2.58;1.63;;;;;;;17.58;47.25;102826.69;5041413;28;20261;-40
2024/01/13 01:46:56;;;;;;;2.50;1.60;;;;;;;17.57;47.35;102825.00;5041373;28;20057;-39
2024/01/13 01:49:22;;;;;;;1.60;1.45;;;;;;;17.57;47.19;102819.53;5040277;28;20046;-40
2024/01/13 01:51:47;;;;;;;1.45;1.23;;;;;;;17.56;47.23;102823.31;5038475;28;20075;-40
2024/01/13 01:54:13;;;;;;;1.65;1.35;;;;;;;17.54;47.27;102812.59;5038442;28;20017;-37
2024/01/13 01:56:38;;;;;;;1.83;1.38;;;;;;;17.54;47.43;102811.75;5039430;28;20028;-37
2024/01/13 01:59:04;;;;;;;1.33;1.23;;;;;;;17.54;47.42;102811.75;5040984;28;20032;-37
2024/01/13 02:01:30;;;;;;;1.65;1.40;;;;;;;17.52;47.28;102811.13;5038936;28;20020;-37
2024/01/13 02:03:56;;;;;;;1.70;1.38;;;;;;;17.52;47.38;102801.00;5039947;28;20086;-36
2024/01/13 02:06:21;;;;;;;2.20;1.45;;;;;;;17.52;47.49;102800.19;5043769;28;20092;-38
2024/01/13 02:08:47;;;;;;;1.83;1.40;;;;;;;17.49;47.74;102794.06;5041169;28;20230;-39
2024/01/13 02:11:12;;;;;;;1.45;1.33;;;;;;;17.48;47.59;102795.16;5042547;28;20508;-39
2024/01/13 02:13:42;;;;;;;1.67;1.38;;;;;;;17.49;47.58;102796.00;5037374;28;20037;-39
2024/01/13 02:16:08;;;;;;;1.63;1.33;;;;;;;17.47;47.64;102785.25;5038619;28;20501;-38
2024/01/13 02:18:33;;;;;;;1.50;1.35;;;;;;;17.47;47.52;102788.00;5043991;28;20036;-39
2024/01/13 02:20:59;;;;;;;1.20;1.20;;;;;;;17.47;47.54;102784.41;5037319;28;21205;-44
2024/01/13 02:23:24;;;;;;;1.50;1.40;;;;;;;17.46;47.54;102786.31;5038096;28;20021;-39
2024/01/13 02:25:50;;;;;;;1.55;1.20;;;;;;;17.46;47.74;102779.97;5044299;28;20385;-39
2024/01/13 02:28:18;;;;;;;1.25;1.15;;;;;;;17.44;47.50;102774.72;5042155;28;20025;-37
2024/01/13 02:30:44;;;;;;;1.45;1.35;;;;;;;17.44;47.60;102766.50;5040853;28;20556;-38
2024/01/13 02:33:09;;;;;;;1.40;1.30;;;;;;;17.43;47.71;102759.34;5039495;28;20044;-38
2024/01/13 02:35:35;;;;;;;2.50;1.20;;;;;;;17.43;47.77;102758.50;5040169;28;20035;-37
2024/01/13 02:38:00;;;;;;;2.28;1.38;;;;;;;17.43;47.69;102755.78;5038042;28;20032;-37
2024/01/13 02:40:25;;;;;;;1.27;1.13;;;;;;;17.42;47.72;102749.44;5040026;28;20031;-40
2024/01/13 02:42:51;;;;;;;1.98;1.40;;;;;;;17.41;47.85;102741.44;5040987;28;20461;-39
2024/01/13 02:45:16;;;;;;;1.52;1.42;;;;;;;17.40;47.84;102737.88;5042466;28;20091;-39
2024/01/13 02:47:47;;;;;;;1.20;1.10;;;;;;;17.40;47.86;102734.28;5040941;28;20602;-39
2024/01/13 02:50:16;;;;;;;1.50;1.27;;;;;;;17.39;47.70;102732.63;5039919;28;20065;-39
2024/01/13 02:52:44;;;;;;;1.10;1.10;;;;;;;17.36;47.95;102728.41;5039179;28;20379;-38
2024/01/13 02:55:09;;;;;;;5.03;1.30;;;;;;;17.36;48.02;102724.84;5045086;28;20536;-38
2024/01/13 02:57:35;;;;;;;1.08;1.02;;;;;;;17.35;48.07;102729.50;5048644;28;20106;-39
2024/01/13 03:00:00;;;;;;;1.90;1.48;;;;;;;17.35;48.02;102725.91;5037026;28;20021;-39
2024/01/13 03:02:25;;;;;;;2.05;1.20;;;;;;;17.35;47.90;102715.81;5039859;28;20170;-39
2024/01/13 03:04:51;;;;;;;1.20;1.10;;;;;;;17.33;48.06;102707.78;5039721;28;20033;-39
2024/01/13 03:07:16;;;;;;;1.10;1.10;;;;;;;17.33;48.02;102710.53;5040599;28;20024;-37
2024/01/13 03:09:41;;;;;;;3.88;1.30;;;;;;;17.32;48.04;102699.78;5044758;28;20056;-36
2024/01/13 03:12:07;;;;;;;1.15;1.05;;;;;;;17.33;48.05;102704.22;5040348;28;20397;-35
2024/01/13 03:14:32;;;;;;;4.50;1.30;;;;;;;17.32;48.12;102697.06;5039122;28;20092;-36
2024/01/13 03:16:57;;;;;;;1.25;1.13;;;;;;;17.30;48.03;102693.69;5036519;28;20029;-38
2024/01/13 03:19:24;;;;;;;2.83;1.20;;;;;;;17.30;48.07;102704.66;5035516;28;20160;-36
2024/01/13 03:21:49;;;;;;;2.80;1.30;;;;;;;17.30;48.10;102696.44;5039285;28;20028;-36
2024/01/13 03:24:14;;;;;;;1.95;1.20;;;;;;;17.30;48.12;102688.22;5042900;28;20032;-39
2024/01/13 03:26:40;;;;;;;1.17;1.10;;;;;;;17.29;48.12;102679.16;5038129;28;20021;-38
2024/01/13 03:29:05;;;;;;;1.13;1.02;;;;;;;17.28;47.98;102671.19;5040846;28;20528;-39
2024/01/13 03:31:30;;;;;;;1.75;1.10;;;;;;;17.28;48.19;102682.16;5041583;28;20485;-40
2024/01/13 03:33:56;;;;;;;1.60;1.10;;;;;;;17.28;48.20;102682.16;5043643;28;20186;-40
2024/01/13 03:36:21;;;;;;;1.40;1.30;;;;;;;17.25;48.39;102677.97;5045035;28;20113;-39
2024/01/13 03:38:47;;;;;;;1.35;1.00;;;;;;;17.25;48.19;102680.69;5044499;28;20044;-39
2024/01/13 03:41:13;;;;;;;1.02;1.00;;;;;;;17.25;48.21;102666.13;5044749;28;20060;-39
2024/01/13 03:43:39;;;;;;;1.95;1.02;;;;;;;17.24;48.18;102659.84;5042398;28;20033;-40
2024/01/13 03:46:05;;;;;;;1.35;1.00;;;;;;;17.23;48.19;102652.69;5043258;28;20107;-41
2024/01/13 03:48:30;;;;;;;0.82;0.82;;;;;;;17.23;48.25;102651.81;5044757;28;20090;-39
2024/01/13 03:50:56;;;;;;;0.90;0.90;;;;;;;17.22;48.40;102645.50;5043737;28;20589;-37
2024/01/13 03:53:21;;;;;;;1.13;0.90;;;;;;;17.21;48.13;102641.09;5043629;28;20061;-39
2024/01/13 03:55:46;;;;;;;0.98;0.85;;;;;;;17.21;48.29;102649.31;5042579;28;20040;-39
2024/01/13 03:58:12;;;;;;;1.08;0.90;;;;;;;17.21;48.22;102621.91;5043928;28;20120;-36
2024/01/13 04:00:37;;;;;;;2.13;0.80;;;;;;;17.19;48.46;102624.06;5043482;28;20021;-39
2024/01/13 04:03:03;;;;;;;1.55;1.00;;;;;;;17.20;48.21;102616.66;5044559;28;20073;-39
2024/01/13 04:05:28;;;;;;;1.02;0.98;;;;;;;17.20;48.38;102622.16;5041788;28;20031;-40
2024/01/13 04:07:53;;;;;;;1.27;0.80;;;;;;;17.21;48.46;102608.22;5039720;28;20028;-40
2024/01/13 04:10:19;;;;;;;2.92;0.95;;;;;;;17.27;48.28;102610.03;5042347;28;20101;-37
2024/01/13 04:12:45;;;;;;;1.50;0.95;;;;;;;17.36;47.96;102609.75;5042757;28;20029;-37
2024/01/13 04:15:10;;;;;;;5.25;0.95;;;;;;;17.46;47.92;102613.63;5050163;28;20036;-37
2024/01/13 04:17:36;;;;;;;0.70;0.70;;;;;;;17.55;47.97;102608.66;5044720;28;20025;-39
2024/01/13 04:20:01;;;;;;;2.45;0.80;;;;;;;17.65;47.82;102605.34;5043977;28;20377;-38
2024/01/13 04:22:27;;;;;;;2.05;0.90;;;;;;;17.75;47.64;102610.28;5042132;28;20037;-37
2024/01/13 04:24:52;;;;;;;2.00;0.80;;;;;;;17.82;47.69;102600.06;5044268;28;20116;-37
2024/01/13 04:27:17;;;;;;;1.50;1.00;;;;;;;17.91;47.50;102606.88;5043768;28;20083;-37
2024/01/13 04:29:43;;;;;;;1.17;0.75;;;;;;;17.97;47.52;102605.13;5042505;28;20029;-38
2024/01/13 04:32:08;;;;;;;1.63;0.90;;;;;;;18.06;47.55;102606.50;5043644;28;20037;-37
2024/01/13 04:34:33;;;;;;;1.80;0.90;;;;;;;18.13;47.66;102606.38;5043569;28;20107;-37
2024/01/13 04:37:00;;;;;;;1.20;0.80;;;;;;;18.22;47.51;102604.13;5040141;28;20052;-36
2024/01/13 04:39:26;;;;;;;1.38;0.70;;;;;;;18.31;47.41;102599.97;5036844;28;20021;-37
2024/01/13 04:41:51;;;;;;;1.55;0.63;;;;;;;18.40;47.42;102600.47;5042809;28;20036;-38
2024/01/13 04:44:17;;;;;;;0.77;0.75;;;;;;;18.49;47.34;102592.69;5044156;28;20029;-36
2024/01/13 04:46:42;;;;;;;1.15;0.70;;;;;;;18.56;47.22;102588.75;5040590;28;20036;-37
2024/01/13 04:49:07;;;;;;;0.70;0.63;;;;;;;18.63;47.23;102588.66;5041455;28;20027;-37
2024/01/13 04:51:33;;;;;;;1.35;0.80;;;;;;;18.72;47.19;102606.47;5045394;28;20055;-39
2024/01/13 04:53:58;;;;;;;0.95;0.70;;;;;;;18.79;47.18;102600.84;5040442;28;20485;-40
2024/01/13 04:56:24;;;;;;;1.13;0.70;;;;;;;18.86;47.14;102601.53;5040598;28;20057;-39
2024/01/13 04:58:49;;;;;;;0.98;0.80;;;;;;;18.91;47.00;102598.94;5042493;28;20039;-40
2024/01/13 05:01:15;;;;;;;0.73;0.50;;;;;;;18.99;46.83;102594.97;5039879;28;20021;-39
2024/01/13 05:03:40;;;;;;;1.30;0.80;;;;;;;19.06;46.88;102597.59;5041129;28;20026;-39
2024/01/13 05:06:06;;;;;;;0.50;0.50;;;;;;;19.12;47.01;102596.66;5044003;28;20036;-39
2024/01/13 05:08:32;;;;;;;1.10;0.77;;;;;;;19.18;46.89;102606.66;5040471;28;20275;-40
2024/01/13 05:10:58;;;;;;;1.77;0.70;;;;;;;19.22;46.93;102607.00;5043001;28;20243;-40
2024/01/13 05:13:23;;;;;;;0.75;0.60;;;;;;;19.28;46.73;102610.72;5040137;28;20025;-37
2024/01/13 05:15:48;;;;;;;1.23;0.70;;;;;;;19.30;46.84;102608.53;5042604;28;20063;-37
2024/01/13 05:18:14;;;;;;;0.65;0.60;;;;;;;19.31;46.55;102610.22;5044766;28;20417;-37
2024/01/13 05:20:39;;;;;;;0.50;0.50;;;;;;;19.32;46.55;102606.41;5040844;28;20048;-37
2024/01/13 05:23:04;;;;;;;1.08;0.60;;;;;;;19.30;46.62;102598.41;5040656;28;20075;-40
2024/01/13 05:25:30;;;;;;;0.80;0.70;;;;;;;19.30;46.56;102603.91;5039692;28;20028;-40
2024/01/13 05:27:55;;;;;;;1.25;0.75;;;;;;;19.28;46.32;102599.72;5041141;28;20025;-39
2024/01/13 05:30:21;;;;;;;1.10;0.70;;;;;;;19.26;46.38;102588.94;5041277;28;20100;-40
2024/01/13 05:32:47;;;;;;;1.13;0.63;;;;;;;19.23;46.43;102583.97;5041986;28;20021;-39
2024/01/13 05:35:12;;;;;;;1.63;0.57;;;;;;;19.20;46.27;102581.69;5041311;28;20037;-37
2024/01/13 05:37:37;;;;;;;0.60;0.60;;;;;;;19.18;46.42;102564.63;5042485;28;20033;-36
2024/01/13 05:40:05;;;;;;;1.55;0.60;;;;;;;19.18;46.29;102553.63;5040039;28;20109;-37
2024/01/13 05:42:31;;;;;;;0.52;0.47;;;;;;;19.17;46.58;102558.25;5043009;28;20025;-37
2024/01/13 05:44:56;;;;;;;0.80;0.60;;;;;;;19.18;46.43;102548.13;5039712;28;20036;-37
2024/01/13 05:47:22;;;;;;;0.57;0.57;;;;;;;19.19;46.50;102552.50;5049764;28;20020;-37
2024/01/13 05:49:47;;;;;;;0.80;0.50;;;;;;;19.21;46.55;102561.38;5040616;28;20041;-37
2024/01/13 05:52:12;;;;;;;1.33;0.70;;;;;;;19.22;46.48;102558.38;5040498;28;20047;-38
2024/01/13 05:54:39;;;;;;;1.20;0.73;;;;;;;19.23;46.59;102560.03;5039882;28;20064;-37
2024/01/13 05:57:04;;;;;;;0.63;0.50;;;;;;;19.25;46.42;102554.28;5048377;28;20029;-40
2024/01/13 05:59:30;;;;;;;3.00;0.80;;;;;;;19.25;46.23;102559.78;5041125;28;20043;-39
2024/01/13 06:01:56;;;;;;;0.85;0.52;;;;;;;19.26;46.49;102569.72;5039095;28;20025;-36
2024/01/13 06:04:21;;;;;;;2.08;0.80;;;;;;;19.27;46.29;102568.63;5038240;28;20456;-36
2024/01/13 06:06:46;;;;;;;1.25;0.70;;;;;;;19.26;46.38;102564.22;5041386;28;20136;-36
2024/01/13 06:09:12;;;;;;;1.08;0.73;;;;;;;19.25;46.13;102546.03;5036169;28;20027;-36
2024/01/13 06:11:41;;;;;;;1.23;0.77;;;;;;;19.24;46.25;102549.91;5040920;28;20052;-37
2024/01/13 06:14:06;;;;;;;0.82;0.82;;;;;;;19.24;46.29;102552.66;5041496;28;20031;-37
2024/01/13 06:16:32;;;;;;;0.60;0.60;;;;;;;19.23;46.31;102559.22;5037594;28;20021;-38
2024/01/13 06:18:57;;;;;;;0.60;0.60;;;;;;;19.21;46.22;102551.22;5038911;28;20083;-38
2024/01/13 06:21:23;;;;;;;2.03;0.70;;;;;;;19.18;46.25;102539.88;5043402;28;20031;-38
2024/01/13 06:23:48;;;;;;;0.63;0.63;;;;;;;19.15;46.36;102524.69;5037252;28;20035;-38
2024/01/13 06:26:14;;;;;;;0.93;0.80;;;;;;;19.15;46.34;102515.63;5038602;28;20037;-37
2024/01/13 06:28:39;;;;;;;1.50;0.80;;;;;;;19.13;46.20;102510.38;5041410;28;20154;-37
2024/01/13 06:31:05;;;;;;;1.15;0.70;;;;;;;19.11;46.36;102504.28;5045077;28;20025;-38
2024/01/13 06:33:30;;;;;;;1.25;0.80;;;;;;;19.12;46.29;102491.38;5038997;28;20079;-36
2024/01/13 06:35:55;;;;;;;1.00;0.77;;;;;;;19.12;46.33;102489.47;5041350;28;20029;-37
2024/01/13 06:38:21;;;;;;;1.00;0.85;;;;;;;19.13;46.34;102499.38;5039609;28;20086;-37
2024/01/13 06:40:46;;;;;;;0.73;0.60;;;;;;;19.12;46.27;102485.88;5039263;28;20032;-37
2024/01/13 06:43:13;;;;;;;2.05;0.68;;;;;;;19.13;46.19;102482.03;5039909;28;20028;-37
2024/01/13 06:45:38;;;;;;;0.90;0.70;;;;;;;19.12;46.20;102466.66;5042194;28;20033;-40
2024/01/13 06:48:04;;;;;;;2.88;0.90;;;;;;;19.13;46.11;102465.53;5041221;28;20040;-39
2024/01/13 06:50:29;;;;;;;0.80;0.80;;;;;;;19.12;46.18;102472.97;5043771;28;20171;-38
2024/01/13 06:52:55;;;;;;;3.70;1.00;;;;;;;19.11;45.98;102478.72;5041343;28;20048;-38
2024/01/13 06:55:24;;;;;;;1.15;0.90;;;;;;;19.10;46.29;102466.88;5040652;28;20028;-39
2024/01/13 06:57:50;;;;;;;1.33;0.80;;;;;;;19.09;46.14;102465.19;5039129;28;20029;-39
2024/01/13 07:00:16;;;;;;;1.20;0.73;;;;;;;19.06;46.06;102468.44;5040237;28;20028;-36
2024/01/13 07:02:42;;;;;;;1.15;0.80;;;;;;;19.05;45.95;102469.53;5040676;28;20020;-37
2024/01/13 07:05:08;;;;;;;1.05;0.73;;;;;;;19.04;46.28;102474.19;5041965;28;20382;-36
2024/01/13 07:07:34;;;;;;;0.80;0.80;;;;;;;19.01;46.06;102457.38;5044401;28;20073;-37
2024/01/13 07:09:59;;;;;;;0.93;0.90;;;;;;;18.98;46.22;102457.84;5044363;28;20125;-36
2024/01/13 07:12:24;;;;;;;1.92;0.95;;;;;;;18.97;46.25;102462.50;5046669;28;20112;-37
2024/01/13 07:14:50;;;;;;;0.93;0.80;;;;;;;18.95;46.11;102461.91;5042381;28;20075;-39
2024/01/13 07:17:16;;;;;;;1.67;0.90;;;;;;;18.94;46.06;102445.69;5046052;28;20024;-42
2024/01/13 07:19:42;;;;;;;0.70;0.70;;;;;;;18.91;46.18;102430.53;5043420;28;20115;-41
2024/01/13 07:22:08;;;;;;;1.00;0.90;;;;;;;18.88;46.23;102448.31;5045426;28;20025;-40
2024/01/13 07:24:34;;;;;;;1.38;1.20;;;;;;;18.86;46.16;102452.34;5045562;28;20123;-39
2024/01/13 07:26:59;;;;;;;1.00;0.93;;;;;;;18.84;46.31;102446.28;5043518;28;20097;-39
2024/01/13 07:29:25;;;;;;;1.35;1.10;;;;;;;18.81;46.28;102422.88;5043983;28;20021;-43
2024/01/13 07:31:50;;;;;;;1.20;1.00;;;;;;;18.79;46.17;102429.72;5041769;28;20317;-43
2024/01/13 07:34:15;;;;;;;1.20;1.10;;;;;;;18.75;46.33;102449.41;5045471;28;20032;-43
2024/01/13 07:36:41;;;;;;;1.13;1.00;;;;;;;18.73;46.20;102440.56;5042927;28;20033;-39
2024/01/13 07:39:09;;;;;;;1.10;0.90;;;;;;;18.71;46.37;102436.41;5043666;28;20032;-39
2024/01/13 07:41:35;;;;;;;1.70;1.27;;;;;;;18.66;46.29;102423.38;5045384;28;20048;-40
2024/01/13 07:44:01;;;;;;;2.08;1.00;;;;;;;18.65;46.46;102421.75;5043390;28;20117;-40
2024/01/13 07:46:26;;;;;;;1.50;1.23;;;;;;;18.63;46.65;102436.78;5042353;28;20271;-39
2024/01/13 07:48:52;;;;;;;2.28;1.08;;;;;;;18.60;46.50;102449.06;5044051;28;20037;-39
2024/01/13 07:51:20;;;;;;;1.20;1.10;;;;;;;18.57;46.63;102453.13;5042761;28;20505;-42
2024/01/13 07:53:46;;;;;;;1.83;1.10;;;;;;;18.55;46.66;102435.25;5043511;28;20525;-40
2024/01/13 07:56:11;;;;;;;1.40;1.00;;;;;;;18.53;46.82;102431.94;5043839;28;20330;-43
2024/01/13 07:58:37;;;;;;;1.10;1.00;;;;;;;18.52;46.71;102433.00;5041777;28;20056;-39
2024/01/13 08:01:02;;;;;;;1.20;1.10;;;;;;;18.51;46.78;102421.16;5042159;28;20797;-38
2024/01/13 08:03:28;;;;;;;2.70;1.20;;;;;;;18.52;46.73;102419.25;5044868;28;20028;-39
2024/01/13 08:05:54;;;;;;;1.50;1.10;;;;;;;18.53;46.75;102424.50;5043175;28;20174;-40
2024/01/13 08:08:19;;;;;;;4.03;1.10;;;;;;;18.55;46.80;102427.00;5043603;28;20389;-42
2024/01/13 08:10:44;;;;;;;2.00;1.20;;;;;;;18.56;46.61;102428.69;5042154;28;20497;-39
2024/01/13 08:13:10;;;;;;;1.20;1.10;;;;;;;18.56;46.55;102429.50;5042557;28;20456;-39
2024/01/13 08:15:36;;;;;;;2.25;1.20;;;;;;;18.59;46.57;102433.69;5044358;28;20013;-42
2024/01/13 08:18:01;;;;;;;2.13;1.60;;;;;;;18.60;46.35;102436.19;5040827;28;20029;-39
2024/01/13 08:20:26;;;;;;;1.30;1.20;;;;;;;18.60;46.62;102440.84;5042793;28;20024;-39
2024/01/13 08:22:52;;;;;;;2.38;1.17;;;;;;;18.62;46.53;102432.38;5043427;28;20111;-39
2024/01/13 08:25:17;;;;;;;1.48;1.10;;;;;;;18.63;46.40;102428.56;5044061;28;20033;-39
2024/01/13 08:27:43;;;;;;;4.25;1.30;;;;;;;18.64;46.24;102420.06;5047105;28;20041;-39
2024/01/13 08:30:08;;;;;;;2.17;1.30;;;;;;;18.64;46.53;102419.22;5043279;28;20658;-44
2024/01/13 08:32:34;;;;;;;2.10;1.25;;;;;;;18.66;46.47;102423.38;5039699;28;20024;-39
2024/01/13 08:34:59;;;;;;;1.88;1.20;;;;;;;18.67;46.44;102432.47;5043973;28;20021;-39
2024/01/13 08:37:25;;;;;;;1.98;1.05;;;;;;;18.68;46.54;102420.41;5030409;28;20025;-39
2024/01/13 08:39:50;;;;;;;1.40;1.30;;;;;;;18.69;46.68;102427.59;5049617;28;20029;-39
2024/01/13 08:42:16;;;;;;;1.00;1.00;;;;;;;18.69;46.58;102422.91;5043733;28;20127;-39
2024/01/13 08:44:41;;;;;;;5.10;1.40;;;;;;;18.71;46.52;102420.78;5049175;28;20158;-39
2024/01/13 08:47:06;;;;;;;1.85;1.50;;;;;;;18.73;46.58;102413.09;5045726;28;20085;-39
2024/01/13 08:49:32;;;;;;;1.40;1.30;;;;;;;18.76;46.38;102406.28;5045359;28;20032;-39
2024/01/13 08:51:57;;;;;;;1.52;1.20;;;;;;;18.77;46.49;102410.69;5041131;28;20064;-39
2024/01/13 08:54:23;;;;;;;1.30;1.10;;;;;;;18.80;46.79;102406.63;5041523;28;20461;-40
2024/01/13 08:56:49;;;;;;;1.92;1.10;;;;;;;18.79;46.44;102400.31;5042744;28;20025;-40
2024/01/13 08:59:15;;;;;;;1.50;1.40;;;;;;;18.81;46.49;102405.56;5043239;28;20561;-40
2024/01/13 09:01:40;;;;;;;1.90;1.13;;;;;;;18.82;46.41;102402.59;5042736;28;20104;-38
2024/01/13 09:04:09;;;;;;;1.33;1.23;;;;;;;18.81;46.61;102405.56;5040054;28;20054;-39
2024/01/13 09:06:35;;;;;;;1.70;1.13;;;;;;;18.81;46.57;102406.41;5044115;28;20404;-39
2024/01/13 09:09:01;;;;;;;1.73;1.20;;;;;;;18.81;46.39;102416.53;5044556;28;20028;-39
2024/01/13 09:11:27;;;;;;;3.28;1.60;;;;;;;18.80;46.60;102414.88;5042044;28;20120;-45
2024/01/13 09:13:52;;;;;;;1.55;1.20;;;;;;;18.79;46.55;102413.22;5039009;28;20416;-39
2024/01/13 09:16:18;;;;;;;1.88;1.40;;;;;;;18.77;46.63;102416.19;5040458;28;20444;-44
2024/01/13 09:18:43;;;;;;;1.52;1.30;;;;;;;18.77;46.87;102407.94;5041535;28;20032;-40
2024/01/13 09:21:11;;;;;;;1.30;1.20;;;;;;;18.77;46.44;102407.94;5023806;28;20064;-40
2024/01/13 09:23:36;;;;;;;1.80;1.52;;;;;;;18.75;46.51;102399.97;5041754;28;20393;-40
2024/01/13 09:26:03;;;;;;;2.17;1.50;;;;;;;18.75;46.39;102390.91;5045138;28;20028;-39
2024/01/13 09:28:28;;;;;;;1.60;1.50;;;;;;;18.74;46.42;102389.22;5039211;28;20032;-39
2024/01/13 09:30:54;;;;;;;1.50;1.40;;;;;;;18.72;46.58;102386.75;5042453;28;20075;-37
2024/01/13 09:33:19;;;;;;;2.03;1.70;;;;;;;18.69;46.38;102389.13;5043070;28;20261;-37
2024/01/13 09:35:44;;;;;;;2.10;1.70;;;;;;;18.69;46.34;102392.69;5040361;28;20024;-36
2024/01/13 09:38:10;;;;;;;2.50;1.70;;;;;;;18.68;46.46;102390.22;5039701;28;20025;-36
2024/01/13 09:40:41;;;;;;;2.35;1.73;;;;;;;18.66;46.43;102379.44;5041083;28;20044;-36
2024/01/13 09:43:06;;;;;;;2.38;1.80;;;;;;;18.65;46.33;102379.69;5042249;28;20508;-36
2024/01/13 09:45:32;;;;;;;2.85;1.90;;;;;;;18.63;46.52;102381.88;5040130;28;20017;-36
2024/01/13 09:47:58;;;;;;;2.00;1.80;;;;;;;18.60;46.34;102381.28;5038241;28;20036;-37
2024/01/13 09:50:24;;;;;;;64.00;4.18;;;;;;;18.60;46.68;102380.41;5040631;28;20035;-39
2024/01/13 09:52:49;;;;;;;185.98;6.18;;;;;;;18.59;46.87;102376.84;5040631;28;20433;-37
2024/01/13 09:55:15;;;;;;;14.25;2.30;;;;;;;18.63;47.15;102379.13;5035946;28;20549;-38
2024/01/13 09:57:41;;;;;;;6.55;2.00;;;;;;;18.65;47.20;102379.69;5073184;28;20068;-37
2024/01/13 10:00:08;;;;;;;9.35;2.30;;;;;;;18.68;47.33;102377.31;5038905;28;20489;-39
2024/01/13 10:02:33;;;;;;;3.17;2.20;;;;;;;18.74;47.32;102378.25;5039131;28;20521;-39
2024/01/13 10:04:59;;;;;;;28.67;4.00;;;;;;;18.77;47.31;102377.75;5041866;28;20319;-36
2024/01/13 10:07:25;;;;;;;7.47;2.40;;;;;;;18.80;46.94;102379.16;5038461;28;20106;-36
2024/01/13 10:09:50;;;;;;;6.75;2.70;;;;;;;18.83;47.20;102374.00;5040670;28;20071;-35
2024/01/13 10:12:16;;;;;;;4.45;2.67;;;;;;;18.85;47.08;102371.03;5041873;28;20021;-35
2024/01/13 10:14:44;;;;;;;6.72;3.00;;;;;;;18.85;46.81;102374.59;5036556;28;20024;-35
2024/01/13 10:17:10;;;;;;;5.10;3.00;;;;;;;18.84;46.77;102372.94;5035954;28;20709;-35
2024/01/13 10:19:40;;;;;;;6.95;2.90;;;;;;;18.86;46.71;102369.94;5033544;28;20108;-35
2024/01/13 10:22:05;;;;;;;31.35;3.97;;;;;;;18.87;46.74;102369.72;5033794;28;20541;-38
2024/01/13 10:24:31;;;;;;;11.75;3.15;;;;;;;18.91;46.71;102364.59;5040076;28;20021;-38
2024/01/13 10:26:57;;;;;;;6.95;2.70;;;;;;;18.92;46.17;102369.84;5030472;28;20456;-39
2024/01/13 10:29:23;;;;;;;23.20;3.47;;;;;;;18.94;46.71;102369.56;5030713;28;20024;-37
2024/01/13 10:31:50;;;;;;;8.25;3.10;;;;;;;18.97;46.71;102374.59;5032955;28;20029;-41
2024/01/13 10:34:19;;;;;;;11.57;3.28;;;;;;;19.00;46.54;102367.78;5039911;28;20021;-41
2024/01/13 10:36:44;;;;;;;7.43;3.35;;;;;;;19.02;46.19;102365.63;5035603;28;20036;-38
2024/01/13 10:39:10;;;;;;;9.77;3.80;;;;;;;19.00;46.28;102354.84;5032982;28;20079;-38
2024/01/13 10:41:37;;;;;;;6.57;3.15;;;;;;;18.99;46.19;102350.44;5035551;28;20033;-36
2024/01/13 10:44:07;;;;;;;6.70;3.60;;;;;;;19.01;46.42;102352.97;5033510;28;20029;-36
2024/01/13 10:46:33;;;;;;;10.20;3.45;;;;;;;18.99;46.31;102344.13;5034255;28;20039;-36
2024/01/13 10:49:04;;;;;;;3.40;3.10;;;;;;;19.01;46.28;102347.47;5038029;28;20025;-34
2024/01/13 10:51:33;;;;;;;9.27;3.85;;;;;;;19.01;46.13;102339.22;5043433;28;20056;-36
2024/01/13 10:54:00;;;;;;;6.10;4.20;;;;;;;19.01;46.02;102337.28;5034210;28;20031;-35
2024/01/13 10:56:27;;;;;;;4.53;3.85;;;;;;;19.01;46.20;102342.78;5027860;28;20241;-36
2024/01/13 10:58:54;;;;;;;8.00;4.18;;;;;;;19.05;46.14;102351.38;5031473;28;20061;-38
2024/01/13 11:01:20;;;;;;;6.32;4.10;;;;;;;19.05;46.09;102343.13;5035278;28;20041;-38
2024/01/13 11:03:47;;;;;;;7.05;4.18;;;;;;;19.05;46.05;102346.69;5037003;28;20032;-38
2024/01/13 11:06:12;;;;;;;10.85;4.78;;;;;;;19.03;45.92;102345.28;5040193;28;20055;-37
2024/01/13 11:08:38;;;;;;;6.05;4.20;;;;;;;19.01;45.84;102336.47;5040090;28;20021;-38
2024/01/13 11:11:04;;;;;;;6.35;4.43;;;;;;;18.98;45.92;102328.72;5039419;28;20155;-38
2024/01/13 11:13:35;;;;;;;8.40;4.55;;;;;;;18.96;46.05;102325.38;5037101;28;20032;-41
2024/01/13 11:16:04;;;;;;;5.57;4.57;;;;;;;18.95;45.82;102318.22;5035851;28;20082;-41